Lost Hills, California
Current Conditions -  °F | °C
As of 1:54 PM on Sunday 25 Jan 2015 (Local Time) from KBFL Reporting Station
Haze Haze  
Wind Chill: 11°   Ceiling: Unl
Heat Index: 11°   Visibility: 4mi
Dew Point:   Wind: 6mph
Humidity: 74%   Direction: 260°W
Pressure: 30.06"   Gusts: NA
Location:  35.62°N, 119.7°W
Report Text: KBFL 252154Z 26005KT 4SM HZ CLR 11/07 A3006 RMK AO2 SLP180 T01110067
Loading
Personal Weather Stations






























Interactive Weather Map New forecast layout! Learn more

10-Day Weather Forecast

Advertisements
Track Severe Weather on mobile